Time,TemperatureF,DewpointF,PressureIn,WindDirection,WindDirectionDegrees,WindSpeedMPH,WindSpeedGustMPH,Humidity,HourlyPrecipIn,Conditions,Clouds,dailyrainin,SoftwareType,DateUTC
2013-02-22 00:01:00,21.2,17.7,30.36,WNW,294,2.0,2.0,86,0.00,,,0.00,Wunderground v.1.15,2013-02-22 05:01:00,
2013-02-22 00:06:00,21.4,17.9,30.37,SW,220,2.0,2.0,86,0.00,,,0.00,Wunderground v.1.15,2013-02-22 05:06:00,
2013-02-22 00:11:00,21.6,18.1,30.38,NNW,347,2.0,4.0,86,0.00,,,0.00,Wunderground v.1.15,2013-02-22 05:11:00,
2013-02-22 00:16:00,21.8,18.0,30.38,WNW,288,2.0,4.0,85,0.00,,,0.00,Wunderground v.1.15,2013-02-22 05:16:00,
2013-02-22 00:21:00,22.1,18.3,30.38,NNE,15,2.0,6.0,85,0.00,,,0.00,Wunderground v.1.15,2013-02-22 05:21:00,
2013-02-22 00:31:00,22.4,18.6,30.39,WSW,257,2.0,2.0,85,0.00,,,0.00,Wunderground v.1.15,2013-02-22 05:31:00,
2013-02-22 00:41:00,22.6,18.5,30.39,NNW,327,2.0,2.0,84,0.00,,,0.00,Wunderground v.1.15,2013-02-22 05:41:00,
2013-02-22 00:46:00,22.7,18.6,30.39,West,271,2.0,3.0,84,0.00,,,0.00,Wunderground v.1.15,2013-02-22 05:46:00,
2013-02-22 00:51:00,22.9,18.8,30.39,West,277,2.0,4.0,84,0.00,,,0.00,Wunderground v.1.15,2013-02-22 05:51:00,
2013-02-22 00:56:00,23.0,18.9,30.39,NNW,347,2.0,4.0,84,0.00,,,0.00,Wunderground v.1.15,2013-02-22 05:56:00,
2013-02-22 01:01:00,23.1,19.0,30.39,NNW,330,2.0,3.0,84,0.00,,,0.00,Wunderground v.1.15,2013-02-22 06:01:00,
2013-02-22 01:06:00,23.3,19.2,30.40,NNW,348,3.0,9.0,84,0.00,,,0.00,Wunderground v.1.15,2013-02-22 06:06:00,
2013-02-22 01:11:00,23.3,18.9,30.40,NNW,345,4.0,5.0,83,0.00,,,0.00,Wunderground v.1.15,2013-02-22 06:11:00,
2013-02-22 01:21:00,23.3,18.9,30.40,WNW,288,3.0,6.0,83,0.00,,,0.00,Wunderground v.1.15,2013-02-22 06:21:00,
2013-02-22 01:26:00,23.2,18.8,30.40,NNW,343,4.0,6.0,83,0.00,,,0.00,Wunderground v.1.15,2013-02-22 06:26:00,
2013-02-22 01:31:00,23.2,19.1,30.40,NW,309,4.0,4.0,84,0.00,,,0.00,Wunderground v.1.15,2013-02-22 06:31:00,
2013-02-22 01:36:00,23.3,19.2,30.40,NW,323,4.0,4.0,84,0.00,,,0.00,Wunderground v.1.15,2013-02-22 06:36:00,
2013-02-22 01:46:00,23.3,18.9,30.40,NNW,345,3.0,3.0,83,0.00,,,0.00,Wunderground v.1.15,2013-02-22 06:46:00,
2013-02-22 01:51:00,23.3,18.9,30.39,WNW,303,3.0,6.0,83,0.00,,,0.00,Wunderground v.1.15,2013-02-22 06:51:00,
2013-02-22 01:56:00,23.2,18.8,30.39,NNW,344,4.0,6.0,83,0.00,,,0.00,Wunderground v.1.15,2013-02-22 06:56:00,
2013-02-22 02:01:00,23.1,18.7,30.40,NW,308,3.0,3.0,83,0.00,,,0.00,Wunderground v.1.15,2013-02-22 07:01:00,
2013-02-22 02:06:00,23.1,18.7,30.39,WNW,286,2.0,4.0,83,0.00,,,0.00,Wunderground v.1.15,2013-02-22 07:06:00,
2013-02-22 02:10:00,23.1,18.7,30.39,WNW,282,2.0,2.0,83,0.00,,,0.00,Wunderground v.1.15,2013-02-22 07:10:00,
2013-02-22 02:15:00,23.0,18.9,30.40,ENE,61,3.0,3.0,84,0.00,,,0.00,Wunderground v.1.15,2013-02-22 07:15:00,
2013-02-22 02:20:00,22.9,18.8,30.39,ENE,58,3.0,4.0,84,0.00,,,0.00,Wunderground v.1.15,2013-02-22 07:20:00,
2013-02-22 02:26:00,22.9,18.8,30.39,North,360,3.0,5.0,84,0.00,,,0.00,Wunderground v.1.15,2013-02-22 07:26:00,
2013-02-22 02:35:00,22.7,18.6,30.39,NW,326,2.0,2.0,84,0.00,,,0.00,Wunderground v.1.15,2013-02-22 07:35:00,
2013-02-22 02:46:00,22.6,18.5,30.39,West,274,2.0,2.0,84,0.00,,,0.00,Wunderground v.1.15,2013-02-22 07:46:00,
2013-02-22 02:55:00,22.6,18.5,30.38,West,267,2.0,3.0,84,0.00,,,0.00,Wunderground v.1.15,2013-02-22 07:55:00,
2013-02-22 03:01:00,22.7,18.6,30.39,WSW,256,2.0,2.0,84,0.00,,,0.00,Wunderground v.1.15,2013-02-22 08:01:00,
2013-02-22 03:10:00,22.8,18.7,30.39,WNW,294,1.0,1.0,84,0.00,,,0.00,Wunderground v.1.15,2013-02-22 08:10:00,
2013-02-22 03:15:00,22.9,18.8,30.39,WNW,294,1.0,3.0,84,0.00,,,0.00,Wunderground v.1.15,2013-02-22 08:15:00,
2013-02-22 03:21:00,23.0,18.9,30.38,NW,322,1.0,1.0,84,0.00,,,0.00,Wunderground v.1.15,2013-02-22 08:21:00,
2013-02-22 03:25:00,23.0,18.9,30.38,NNW,331,2.0,3.0,84,0.00,,,0.00,Wunderground v.1.15,2013-02-22 08:25:00,
2013-02-22 03:30:00,22.9,18.8,30.38,WNW,293,2.0,2.0,84,0.00,,,0.00,Wunderground v.1.15,2013-02-22 08:30:00,
2013-02-22 03:36:00,22.9,18.8,30.39,WNW,294,1.0,4.0,84,0.00,,,0.00,Wunderground v.1.15,2013-02-22 08:36:00,
2013-02-22 03:45:00,22.8,18.7,30.39,WNW,296,1.0,1.0,84,0.00,,,0.00,Wunderground v.1.15,2013-02-22 08:45:00,
2013-02-22 03:56:00,22.8,18.7,30.39,NW,305,2.0,2.0,84,0.00,,,0.00,Wunderground v.1.15,2013-02-22 08:56:00,
2013-02-22 04:01:00,22.8,18.7,30.39,NW,305,1.0,1.0,84,0.00,,,0.00,Wunderground v.1.15,2013-02-22 09:01:00,
2013-02-22 04:05:00,22.8,18.4,30.39,WNW,282,1.0,5.0,83,0.00,,,0.00,Wunderground v.1.15,2013-02-22 09:05:00,
2013-02-22 04:11:00,22.7,18.6,30.39,WNW,300,1.0,1.0,84,0.00,,,0.00,Wunderground v.1.15,2013-02-22 09:11:00,
2013-02-22 04:16:00,22.7,18.6,30.39,WNW,300,1.0,1.0,84,0.00,,,0.00,Wunderground v.1.15,2013-02-22 09:16:00,
2013-02-22 04:20:00,22.7,18.6,30.39,WNW,300,1.0,1.0,84,0.00,,,0.00,Wunderground v.1.15,2013-02-22 09:20:00,
2013-02-22 04:25:00,22.6,18.5,30.39,NW,319,1.0,1.0,84,0.00,,,0.00,Wunderground v.1.15,2013-02-22 09:25:00,
2013-02-22 04:31:00,22.6,18.5,30.39,NW,319,1.0,1.0,84,0.00,,,0.00,Wunderground v.1.15,2013-02-22 09:31:00,
2013-02-22 04:36:00,22.6,18.5,30.39,NW,319,1.0,1.0,84,0.00,,,0.00,Wunderground v.1.15,2013-02-22 09:36:00,
2013-02-22 04:45:00,22.6,18.5,30.39,NW,319,0.0,0.0,84,0.00,,,0.00,Wunderground v.1.15,2013-02-22 09:45:00,
2013-02-22 04:51:00,22.5,18.4,30.39,NW,319,0.0,0.0,84,0.00,,,0.00,Wunderground v.1.15,2013-02-22 09:51:00,
2013-02-22 05:00:00,22.4,18.3,30.40,NW,319,0.0,0.0,84,0.00,,,0.00,Wunderground v.1.15,2013-02-22 10:00:00,
2013-02-22 05:05:00,22.2,18.1,30.40,NW,319,0.0,0.0,84,0.00,,,0.00,Wunderground v.1.15,2013-02-22 10:05:00,
2013-02-22 05:10:00,22.0,18.2,30.40,NW,319,0.0,0.0,85,0.00,,,0.00,Wunderground v.1.15,2013-02-22 10:10:00,
2013-02-22 05:15:00,21.8,18.0,30.40,NW,319,0.0,0.0,85,0.00,,,0.00,Wunderground v.1.15,2013-02-22 10:15:00,
2013-02-22 05:21:00,21.7,17.9,30.39,NW,319,0.0,0.0,85,0.00,,,0.00,Wunderground v.1.15,2013-02-22 10:21:00,
2013-02-22 05:26:00,21.6,17.8,30.39,NW,319,0.0,0.0,85,0.00,,,0.00,Wunderground v.1.15,2013-02-22 10:26:00,
2013-02-22 05:31:00,21.2,17.4,30.39,NW,319,0.0,1.0,85,0.00,,,0.00,Wunderground v.1.15,2013-02-22 10:31:00,
2013-02-22 05:35:00,20.9,17.1,30.39,NW,319,1.0,2.0,85,0.00,,,0.00,Wunderground v.1.15,2013-02-22 10:35:00,
2013-02-22 05:40:00,20.5,17.0,30.40,NW,319,1.0,1.0,86,0.00,,,0.00,Wunderground v.1.15,2013-02-22 10:40:00,
2013-02-22 05:45:00,20.0,16.5,30.40,NW,319,0.0,1.0,86,0.00,,,0.00,Wunderground v.1.15,2013-02-22 10:45:00,
2013-02-22 05:50:00,19.4,15.9,30.40,NW,319,1.0,1.0,86,0.00,,,0.00,Wunderground v.1.15,2013-02-22 10:50:00,
2013-02-22 05:55:00,18.8,15.3,30.40,NW,319,1.0,1.0,86,0.00,,,0.00,Wunderground v.1.15,2013-02-22 10:55:00,
2013-02-22 06:01:00,18.1,14.9,30.40,NW,319,1.0,1.0,87,0.00,,,0.00,Wunderground v.1.15,2013-02-22 11:01:00,
2013-02-22 06:05:00,17.7,14.5,30.40,NW,319,1.0,1.0,87,0.00,,,0.00,Wunderground v.1.15,2013-02-22 11:05:00,
2013-02-22 06:21:00,16.8,13.9,30.41,NW,317,1.0,1.0,88,0.00,,,0.00,Wunderground v.1.15,2013-02-22 11:21:00,
2013-02-22 06:31:00,16.2,13.3,30.41,NW,317,1.0,1.0,88,0.00,,,0.00,Wunderground v.1.15,2013-02-22 11:31:00,
2013-02-22 06:36:00,15.8,12.9,30.42,NW,317,1.0,1.0,88,0.00,,,0.00,Wunderground v.1.15,2013-02-22 11:36:00,
2013-02-22 06:46:00,16.0,13.6,30.43,West,263,2.0,2.0,90,0.00,,,0.00,Wunderground v.1.15,2013-02-22 11:46:00,
2013-02-22 06:50:00,16.5,14.1,30.43,WSW,255,2.0,2.0,90,0.00,,,0.00,Wunderground v.1.15,2013-02-22 11:50:00,
2013-02-22 06:56:00,16.8,14.4,30.44,WSW,255,1.0,3.0,90,0.00,,,0.00,Wunderground v.1.15,2013-02-22 11:56:00,
2013-02-22 07:00:00,17.0,14.6,30.44,WSW,257,1.0,1.0,90,0.00,,,0.00,Wunderground v.1.15,2013-02-22 12:00:00,
2013-02-22 07:06:00,17.1,14.4,30.45,WSW,257,1.0,1.0,89,0.00,,,0.00,Wunderground v.1.15,2013-02-22 12:06:00,
2013-02-22 07:11:00,17.5,15.1,30.45,WSW,257,0.0,0.0,90,0.00,,,0.00,Wunderground v.1.15,2013-02-22 12:11:00,
2013-02-22 07:16:00,17.3,14.4,30.45,WSW,256,0.0,0.0,88,0.00,,,0.00,Wunderground v.1.15,2013-02-22 12:16:00,
2013-02-22 07:21:00,17.2,14.3,30.45,WSW,256,0.0,0.0,88,0.00,,,0.00,Wunderground v.1.15,2013-02-22 12:21:00,
2013-02-22 07:26:00,17.3,14.4,30.45,WSW,256,0.0,0.0,88,0.00,,,0.00,Wunderground v.1.15,2013-02-22 12:26:00,
2013-02-22 07:31:00,17.7,15.0,30.45,WSW,256,0.0,0.0,89,0.00,,,0.00,Wunderground v.1.15,2013-02-22 12:31:00,
2013-02-22 07:41:00,18.9,16.2,30.45,WSW,256,0.0,0.0,89,0.00,,,0.00,Wunderground v.1.15,2013-02-22 12:41:00,
2013-02-22 07:46:00,19.3,16.6,30.46,WSW,256,0.0,1.0,89,0.00,,,0.00,Wunderground v.1.15,2013-02-22 12:46:00,
2013-02-22 07:51:00,19.6,16.6,30.46,WSW,256,0.0,0.0,88,0.00,,,0.00,Wunderground v.1.15,2013-02-22 12:51:00,
2013-02-22 07:55:00,20.0,17.3,30.47,WSW,256,0.0,0.0,89,0.00,,,0.00,Wunderground v.1.15,2013-02-22 12:55:00,
2013-02-22 08:01:00,20.6,17.9,30.47,WSW,256,0.0,0.0,89,0.00,,,0.00,Wunderground v.1.15,2013-02-22 13:01:00,
2013-02-22 08:10:00,21.8,18.8,30.47,WSW,256,0.0,0.0,88,0.00,,,0.00,Wunderground v.1.15,2013-02-22 13:10:00,
2013-02-22 08:15:00,22.5,19.5,30.47,NNW,348,1.0,3.0,88,0.00,,,0.00,Wunderground v.1.15,2013-02-22 13:15:00,
2013-02-22 08:21:00,22.9,19.3,30.47,NNW,348,2.0,4.0,86,0.00,,,0.00,Wunderground v.1.15,2013-02-22 13:21:00,
2013-02-22 08:25:00,23.1,19.3,30.47,NNW,340,3.0,4.0,85,0.00,,,0.00,Wunderground v.1.15,2013-02-22 13:25:00,
2013-02-22 08:35:00,23.1,19.3,30.47,NNW,338,2.0,3.0,85,0.00,,,0.00,Wunderground v.1.15,2013-02-22 13:35:00,
2013-02-22 08:41:00,23.3,19.5,30.47,NNW,346,2.0,2.0,85,0.00,,,0.00,Wunderground v.1.15,2013-02-22 13:41:00,
2013-02-22 08:51:00,23.7,19.9,30.47,NNW,346,2.0,2.0,85,0.00,,,0.00,Wunderground v.1.15,2013-02-22 13:51:00,
2013-02-22 08:55:00,23.8,19.9,30.46,NNW,346,2.0,2.0,85,0.00,,,0.00,Wunderground v.1.15,2013-02-22 13:55:00,
2013-02-22 09:06:00,24.4,20.5,30.46,NNW,336,1.0,6.0,85,0.00,,,0.00,Wunderground v.1.15,2013-02-22 14:06:00,
2013-02-22 09:11:00,24.4,20.3,30.46,NNW,340,2.0,6.0,84,0.00,,,0.00,Wunderground v.1.15,2013-02-22 14:11:00,
2013-02-22 09:16:00,24.6,20.7,30.46,North,355,2.0,2.0,85,0.00,,,0.00,Wunderground v.1.15,2013-02-22 14:16:00,
2013-02-22 09:26:00,25.2,20.5,30.45,North,355,1.0,1.0,82,0.00,,,0.00,Wunderground v.1.15,2013-02-22 14:26:00,
2013-02-22 09:31:00,25.5,20.8,30.46,ESE,108,1.0,2.0,82,0.00,,,0.00,Wunderground v.1.15,2013-02-22 14:31:00,
2013-02-22 09:36:00,25.3,20.3,30.45,ENE,67,2.0,2.0,81,0.00,,,0.00,Wunderground v.1.15,2013-02-22 14:36:00,
2013-02-22 09:41:00,25.2,20.2,30.45,East,94,2.0,5.0,81,0.00,,,0.00,Wunderground v.1.15,2013-02-22 14:41:00,
2013-02-22 09:46:00,25.0,20.0,30.45,ESE,110,2.0,5.0,81,0.00,,,0.00,Wunderground v.1.15,2013-02-22 14:46:00,
2013-02-22 09:51:00,25.3,20.6,30.45,North,5,2.0,2.0,82,0.00,,,0.00,Wunderground v.1.15,2013-02-22 14:51:00,
2013-02-22 09:56:00,25.9,21.2,30.45,NE,49,1.0,2.0,82,0.00,,,0.00,Wunderground v.1.15,2013-02-22 14:56:00,
2013-02-22 10:06:00,27.3,21.9,30.44,NW,321,0.0,0.0,80,0.00,,,0.00,Wunderground v.1.15,2013-02-22 15:06:00,
2013-02-22 10:11:00,27.8,21.5,30.44,NW,321,1.0,2.0,77,0.00,,,0.00,Wunderground v.1.15,2013-02-22 15:11:00,
2013-02-22 10:16:00,27.8,21.5,30.44,ENE,74,1.0,1.0,77,0.00,,,0.00,Wunderground v.1.15,2013-02-22 15:16:00,
2013-02-22 10:21:00,28.3,22.0,30.44,NE,46,1.0,1.0,77,0.00,,,0.00,Wunderground v.1.15,2013-02-22 15:21:00,
2013-02-22 10:26:00,28.7,21.8,30.44,North,355,1.0,4.0,75,0.00,,,0.00,Wunderground v.1.15,2013-02-22 15:26:00,
2013-02-22 10:36:00,29.1,22.2,30.44,North,10,1.0,1.0,75,0.00,,,0.00,Wunderground v.1.15,2013-02-22 15:36:00,
2013-02-22 10:45:00,29.1,21.2,30.44,NNW,332,1.0,2.0,72,0.00,,,0.00,Wunderground v.1.15,2013-02-22 15:45:00,
2013-02-22 10:50:00,28.9,21.0,30.44,NNW,332,1.0,2.0,72,0.00,,,0.00,Wunderground v.1.15,2013-02-22 15:50:00,
2013-02-22 10:56:00,29.0,21.4,30.44,East,92,1.0,1.0,73,0.00,,,0.00,Wunderground v.1.15,2013-02-22 15:56:00,
2013-02-22 11:01:00,29.3,21.7,30.44,NE,51,1.0,1.0,73,0.00,,,0.00,Wunderground v.1.15,2013-02-22 16:01:00,
2013-02-22 11:56:00,30.6,22.0,30.42,NW,325,1.0,2.0,70,0.00,,,0.00,Wunderground v.1.15,2013-02-22 16:56:00,
2013-02-22 12:01:00,30.8,21.5,30.42,East,98,2.0,2.0,68,0.00,,,0.00,Wunderground v.1.15,2013-02-22 17:01:00,
2013-02-22 12:06:00,30.8,21.5,30.42,ENE,57,3.0,3.0,68,0.00,,,0.00,Wunderground v.1.15,2013-02-22 17:06:00,
2013-02-22 12:11:00,31.3,21.3,30.41,East,93,2.0,2.0,66,0.00,,,0.00,Wunderground v.1.15,2013-02-22 17:11:00,
2013-02-22 12:16:00,31.8,21.4,30.41,SE,140,1.0,2.0,65,0.00,,,0.00,Wunderground v.1.15,2013-02-22 17:16:00,
2013-02-22 12:21:00,32.4,21.9,30.41,NE,48,1.0,3.0,65,0.00,,,0.00,Wunderground v.1.15,2013-02-22 17:21:00,
2013-02-22 12:26:00,32.8,22.0,30.41,North,10,1.0,3.0,64,0.00,,,0.00,Wunderground v.1.15,2013-02-22 17:26:00,
2013-02-22 12:30:00,33.0,22.1,30.40,North,5,1.0,2.0,64,0.00,,,0.00,Wunderground v.1.15,2013-02-22 17:30:00,
2013-02-22 12:36:00,32.9,20.9,30.40,SSE,161,1.0,2.0,61,0.00,,,0.00,Wunderground v.1.15,2013-02-22 17:36:00,
2013-02-22 12:41:00,32.0,20.8,30.40,NW,314,3.0,3.0,63,0.00,,,0.00,Wunderground v.1.15,2013-02-22 17:41:00,
2013-02-22 13:06:00,31.5,20.7,30.39,SE,129,2.0,3.0,64,0.00,,,0.00,Wunderground v.1.15,2013-02-22 18:06:00,
2013-02-22 13:11:00,30.9,20.5,30.38,SE,129,2.0,3.0,65,0.00,,,0.00,Wunderground v.1.15,2013-02-22 18:11:00,
2013-02-22 13:21:00,30.8,20.8,30.38,ESE,115,3.0,3.0,66,0.00,,,0.00,Wunderground v.1.15,2013-02-22 18:21:00,
2013-02-22 13:26:00,31.8,21.4,30.38,NNE,26,3.0,5.0,65,0.00,,,0.00,Wunderground v.1.15,2013-02-22 18:26:00,
2013-02-22 13:31:00,32.9,22.0,30.38,ENE,67,2.0,5.0,64,0.00,,,0.00,Wunderground v.1.15,2013-02-22 18:31:00,
2013-02-22 13:36:00,33.0,21.4,30.37,ENE,76,2.0,2.0,62,0.00,,,0.00,Wunderground v.1.15,2013-02-22 18:36:00,
2013-02-22 13:41:00,33.2,21.2,30.37,WSW,254,2.0,2.0,61,0.00,,,0.00,Wunderground v.1.15,2013-02-22 18:41:00,
2013-02-22 13:46:00,33.2,21.2,30.37,ENE,78,1.0,2.0,61,0.00,,,0.00,Wunderground v.1.15,2013-02-22 18:46:00,
2013-02-22 13:51:00,32.9,21.3,30.37,North,9,1.0,2.0,62,0.00,,,0.00,Wunderground v.1.15,2013-02-22 18:51:00,
2013-02-22 13:56:00,32.9,21.3,30.37,NE,52,1.0,2.0,62,0.00,,,0.00,Wunderground v.1.15,2013-02-22 18:56:00,
2013-02-22 14:01:00,33.2,21.2,30.37,ESE,123,1.0,5.0,61,0.00,,,0.00,Wunderground v.1.15,2013-02-22 19:01:00,
2013-02-22 14:05:00,32.4,20.4,30.37,SE,146,2.0,5.0,61,0.00,,,0.00,Wunderground v.1.15,2013-02-22 19:05:00,
2013-02-22 14:11:00,31.7,20.5,30.37,SE,132,4.0,4.0,63,0.00,,,0.00,Wunderground v.1.15,2013-02-22 19:11:00,
2013-02-22 14:16:00,31.4,20.6,30.37,SSE,167,3.0,4.0,64,0.00,,,0.00,Wunderground v.1.15,2013-02-22 19:16:00,
2013-02-22 14:21:00,31.5,20.7,30.36,SSE,167,2.0,2.0,64,0.00,,,0.00,Wunderground v.1.15,2013-02-22 19:21:00,
2013-02-22 14:25:00,31.8,21.0,30.36,SSE,167,1.0,2.0,64,0.00,,,0.00,Wunderground v.1.15,2013-02-22 19:25:00,
2013-02-22 14:31:00,32.3,21.1,30.35,SSE,167,0.0,0.0,63,0.00,,,0.00,Wunderground v.1.15,2013-02-22 19:31:00,
2013-02-22 14:35:00,32.8,21.2,30.35,SSE,167,0.0,1.0,62,0.00,,,0.00,Wunderground v.1.15,2013-02-22 19:35:00,
2013-02-22 14:41:00,32.5,20.9,30.35,ESE,117,1.0,1.0,62,0.00,,,0.00,Wunderground v.1.15,2013-02-22 19:41:00,
2013-02-22 14:46:00,32.4,20.8,30.35,SE,127,2.0,3.0,62,0.00,,,0.00,Wunderground v.1.15,2013-02-22 19:46:00,
2013-02-22 14:51:00,32.0,20.8,30.35,SE,140,2.0,2.0,63,0.00,,,0.00,Wunderground v.1.15,2013-02-22 19:51:00,
2013-02-22 14:56:00,31.9,20.7,30.36,SE,140,3.0,3.0,63,0.00,,,0.00,Wunderground v.1.15,2013-02-22 19:56:00,
2013-02-22 15:01:00,31.9,20.7,30.36,SE,140,3.0,3.0,63,0.00,,,0.00,Wunderground v.1.15,2013-02-22 20:01:00,
2013-02-22 15:06:00,31.9,20.7,30.35,SE,140,2.0,3.0,63,0.00,,,0.00,Wunderground v.1.15,2013-02-22 20:06:00,
2013-02-22 15:11:00,32.2,21.0,30.36,SE,140,1.0,1.0,63,0.00,,,0.00,Wunderground v.1.15,2013-02-22 20:11:00,
2013-02-22 15:16:00,32.8,21.2,30.36,SE,140,0.0,1.0,62,0.00,,,0.00,Wunderground v.1.15,2013-02-22 20:16:00,
2013-02-22 15:26:00,32.6,21.0,30.36,SE,134,2.0,2.0,62,0.00,,,0.00,Wunderground v.1.15,2013-02-22 20:26:00,
2013-02-22 15:36:00,32.2,21.0,30.36,SE,127,2.0,2.0,63,0.00,,,0.00,Wunderground v.1.15,2013-02-22 20:36:00,
2013-02-22 15:46:00,32.8,21.6,30.35,SE,127,0.0,1.0,63,0.00,,,0.00,Wunderground v.1.15,2013-02-22 20:46:00,
2013-02-22 15:51:00,32.5,21.3,30.35,SE,127,1.0,1.0,63,0.00,,,0.00,Wunderground v.1.15,2013-02-22 20:51:00,
2013-02-22 16:01:00,32.0,20.8,30.35,SE,144,3.0,3.0,63,0.00,,,0.00,Wunderground v.1.15,2013-02-22 21:01:00,
2013-02-22 16:06:00,31.8,20.6,30.34,SE,144,3.0,3.0,63,0.00,,,0.00,Wunderground v.1.15,2013-02-22 21:06:00,
2013-02-22 16:10:00,31.7,20.9,30.34,SE,144,2.0,4.0,64,0.00,,,0.00,Wunderground v.1.15,2013-02-22 21:10:00,
2013-02-22 16:16:00,31.5,20.7,30.34,SE,144,3.0,4.0,64,0.00,,,0.00,Wunderground v.1.15,2013-02-22 21:16:00,
2013-02-22 16:21:00,31.5,20.7,30.34,SE,144,3.0,3.0,64,0.00,,,0.00,Wunderground v.1.15,2013-02-22 21:21:00,
2013-02-22 16:26:00,31.5,20.7,30.34,SE,144,2.0,3.0,64,0.00,,,0.00,Wunderground v.1.15,2013-02-22 21:26:00,
2013-02-22 16:40:00,31.5,21.1,30.33,SE,144,2.0,2.0,65,0.00,,,0.00,Wunderground v.1.15,2013-02-22 21:40:00,
2013-02-22 16:50:00,31.4,21.0,30.32,SE,144,1.0,1.0,65,0.00,,,0.00,Wunderground v.1.15,2013-02-22 21:50:00,
2013-02-22 16:55:00,31.4,21.3,30.32,SE,144,0.0,1.0,66,0.00,,,0.00,Wunderground v.1.15,2013-02-22 21:55:00,
2013-02-22 17:00:00,31.3,20.9,30.32,SE,142,0.0,0.0,65,0.00,,,0.00,Wunderground v.1.15,2013-02-22 22:00:00,
2013-02-22 17:05:00,31.3,21.3,30.32,SE,142,0.0,0.0,66,0.00,,,0.00,Wunderground v.1.15,2013-02-22 22:05:00,
2013-02-22 17:10:00,30.8,21.8,30.32,SE,142,1.0,2.0,69,0.00,,,0.00,Wunderground v.1.15,2013-02-22 22:10:00,
2013-02-22 17:15:00,30.4,21.8,30.33,SE,142,1.0,2.0,70,0.00,,,0.00,Wunderground v.1.15,2013-02-22 22:15:00,
2013-02-22 17:20:00,30.2,21.9,30.32,SE,142,1.0,1.0,71,0.00,,,0.00,Wunderground v.1.15,2013-02-22 22:20:00,
2013-02-22 17:25:00,30.0,21.7,30.32,SE,142,0.0,1.0,71,0.00,,,0.00,Wunderground v.1.15,2013-02-22 22:25:00,
2013-02-22 17:30:00,29.8,21.9,30.32,SE,142,0.0,0.0,72,0.00,,,0.00,Wunderground v.1.15,2013-02-22 22:30:00,
2013-02-22 17:45:00,28.9,22.3,30.33,SE,142,0.0,0.0,76,0.00,,,0.00,Wunderground v.1.15,2013-02-22 22:45:00,
2013-02-22 17:55:00,28.5,21.9,30.32,SE,142,0.0,0.0,76,0.00,,,0.00,Wunderground v.1.15,2013-02-22 22:55:00,
2013-02-22 18:00:00,28.3,22.0,30.32,SE,142,0.0,0.0,77,0.00,,,0.00,Wunderground v.1.15,2013-02-22 23:00:00,
2013-02-22 18:05:00,28.0,21.7,30.32,SE,142,0.0,0.0,77,0.00,,,0.00,Wunderground v.1.15,2013-02-22 23:05:00,
2013-02-22 18:21:00,27.3,21.3,30.32,SE,143,0.0,0.0,78,0.00,,,0.00,Wunderground v.1.15,2013-02-22 23:21:00,
2013-02-22 18:30:00,27.1,21.2,30.32,SE,143,0.0,0.0,78,0.00,,,0.00,Wunderground v.1.15,2013-02-22 23:30:00,
2013-02-22 18:35:00,27.0,21.1,30.32,SE,143,0.0,0.0,78,0.00,,,0.00,Wunderground v.1.15,2013-02-22 23:35:00,
2013-02-22 18:40:00,26.8,21.2,30.32,SE,143,0.0,0.0,79,0.00,,,0.00,Wunderground v.1.15,2013-02-22 23:40:00,
2013-02-22 18:45:00,26.5,20.9,30.32,SE,143,0.0,0.0,79,0.00,,,0.00,Wunderground v.1.15,2013-02-22 23:45:00,
2013-02-22 18:50:00,26.5,20.9,30.32,SE,143,0.0,0.0,79,0.00,,,0.00,Wunderground v.1.15,2013-02-22 23:50:00,
2013-02-22 18:55:00,26.4,21.1,30.33,SE,143,0.0,0.0,80,0.00,,,0.00,Wunderground v.1.15,2013-02-22 23:55:00,
2013-02-22 19:00:00,26.1,20.5,30.33,SE,143,0.0,0.0,79,0.00,,,0.00,Wunderground v.1.15,2013-02-23 00:00:00,
2013-02-22 19:05:00,25.9,20.3,30.33,SE,143,0.0,0.0,79,0.00,,,0.00,Wunderground v.1.15,2013-02-23 00:05:00,
2013-02-22 19:10:00,25.7,20.4,30.33,SE,143,0.0,0.0,80,0.00,,,0.00,Wunderground v.1.15,2013-02-23 00:10:00,
2013-02-22 19:20:00,25.2,20.2,30.34,SE,143,0.0,1.0,81,0.00,,,0.00,Wunderground v.1.15,2013-02-23 00:20:00,
2013-02-22 19:25:00,25.0,20.0,30.34,SE,143,0.0,1.0,81,0.00,,,0.00,Wunderground v.1.15,2013-02-23 00:25:00,
2013-02-22 19:35:00,24.9,20.2,30.33,SE,143,0.0,0.0,82,0.00,,,0.00,Wunderground v.1.15,2013-02-23 00:35:00,
2013-02-22 19:40:00,24.9,20.2,30.33,SE,143,0.0,0.0,82,0.00,,,0.00,Wunderground v.1.15,2013-02-23 00:40:00,
2013-02-22 19:45:00,24.9,19.9,30.32,SE,143,0.0,0.0,81,0.00,,,0.00,Wunderground v.1.15,2013-02-23 00:45:00,
2013-02-22 19:55:00,24.6,19.6,30.32,SE,143,1.0,1.0,81,0.00,,,0.00,Wunderground v.1.15,2013-02-23 00:55:00,
2013-02-22 20:00:00,24.5,19.8,30.33,SE,143,0.0,1.0,82,0.00,,,0.00,Wunderground v.1.15,2013-02-23 01:00:00,
2013-02-22 20:10:00,24.1,19.4,30.33,SE,143,1.0,1.0,82,0.00,,,0.00,Wunderground v.1.15,2013-02-23 01:10:00,
2013-02-22 20:15:00,24.0,19.6,30.33,SE,143,0.0,1.0,83,0.00,,,0.00,Wunderground v.1.15,2013-02-23 01:15:00,
2013-02-22 20:20:00,24.1,19.7,30.32,SE,143,0.0,0.0,83,0.00,,,0.00,Wunderground v.1.15,2013-02-23 01:20:00,
2013-02-22 20:25:00,24.0,19.3,30.32,SE,143,0.0,0.0,82,0.00,,,0.00,Wunderground v.1.15,2013-02-23 01:25:00,
2013-02-22 20:30:00,23.8,19.4,30.32,SE,143,0.0,1.0,83,0.00,,,0.00,Wunderground v.1.15,2013-02-23 01:30:00,
2013-02-22 20:35:00,24.0,19.9,30.32,SE,143,0.0,1.0,84,0.00,,,0.00,Wunderground v.1.15,2013-02-23 01:35:00,
2013-02-22 20:40:00,24.2,20.1,30.31,SE,143,0.0,0.0,84,0.00,,,0.00,Wunderground v.1.15,2013-02-23 01:40:00,
2013-02-22 20:45:00,24.2,19.8,30.32,SE,143,0.0,0.0,83,0.00,,,0.00,Wunderground v.1.15,2013-02-23 01:45:00,
2013-02-22 20:55:00,24.3,19.9,30.32,SE,143,0.0,2.0,83,0.00,,,0.00,Wunderground v.1.15,2013-02-23 01:55:00,
2013-02-22 21:05:00,24.2,20.1,30.32,SE,143,0.0,0.0,84,0.00,,,0.00,Wunderground v.1.15,2013-02-23 02:05:00,
2013-02-22 21:15:00,24.2,20.1,30.32,SE,143,0.0,0.0,84,0.00,,,0.00,Wunderground v.1.15,2013-02-23 02:15:00,
2013-02-22 21:20:00,24.2,20.1,30.31,SE,143,0.0,0.0,84,0.00,,,0.00,Wunderground v.1.15,2013-02-23 02:20:00,
2013-02-22 21:25:00,24.2,20.1,30.31,SE,143,0.0,0.0,84,0.00,,,0.00,Wunderground v.1.15,2013-02-23 02:25:00,
2013-02-22 21:30:00,24.2,20.1,30.31,SE,143,0.0,0.0,84,0.00,,,0.00,Wunderground v.1.15,2013-02-23 02:30:00,
2013-02-22 21:35:00,24.3,20.2,30.31,SE,143,0.0,0.0,84,0.00,,,0.00,Wunderground v.1.15,2013-02-23 02:35:00,
2013-02-22 21:40:00,24.2,20.1,30.31,SE,143,0.0,0.0,84,0.00,,,0.00,Wunderground v.1.15,2013-02-23 02:40:00,
2013-02-22 21:45:00,24.3,20.2,30.30,SE,143,0.0,0.0,84,0.00,,,0.00,Wunderground v.1.15,2013-02-23 02:45:00,
2013-02-22 22:30:00,23.3,19.2,30.30,SE,143,0.0,0.0,84,0.00,,,0.00,Wunderground v.1.15,2013-02-23 03:30:00,
2013-02-22 22:40:00,23.0,19.2,30.30,SE,143,0.0,0.0,85,0.00,,,0.00,Wunderground v.1.15,2013-02-23 03:40:00,
2013-02-22 22:45:00,22.9,19.1,30.31,SE,143,0.0,0.0,85,0.00,,,0.00,Wunderground v.1.15,2013-02-23 03:45:00,
2013-02-22 22:50:00,22.8,19.0,30.31,SE,143,0.0,0.0,85,0.00,,,0.00,Wunderground v.1.15,2013-02-23 03:50:00,
2013-02-22 22:55:00,22.6,18.8,30.30,SE,143,0.0,0.0,85,0.00,,,0.00,Wunderground v.1.15,2013-02-23 03:55:00,
2013-02-22 23:00:00,22.5,18.7,30.30,SE,143,0.0,0.0,85,0.00,,,0.00,Wunderground v.1.15,2013-02-23 04:00:00,
2013-02-22 23:05:00,22.6,19.0,30.30,SE,143,0.0,0.0,86,0.00,,,0.00,Wunderground v.1.15,2013-02-23 04:05:00,
2013-02-22 23:10:00,22.5,18.9,30.30,SE,143,0.0,0.0,86,0.00,,,0.00,Wunderground v.1.15,2013-02-23 04:10:00,
2013-02-22 23:15:00,22.5,18.9,30.30,SE,143,1.0,1.0,86,0.00,,,0.00,Wunderground v.1.15,2013-02-23 04:15:00,
2013-02-22 23:20:00,22.6,19.0,30.31,SE,143,0.0,0.0,86,0.00,,,0.00,Wunderground v.1.15,2013-02-23 04:20:00,
2013-02-22 23:25:00,22.6,19.0,30.31,SE,143,0.0,0.0,86,0.00,,,0.00,Wunderground v.1.15,2013-02-23 04:25:00,
2013-02-22 23:30:00,22.7,19.1,30.31,SE,143,0.0,0.0,86,0.00,,,0.00,Wunderground v.1.15,2013-02-23 04:30:00,
2013-02-22 23:35:00,22.9,19.3,30.31,SE,143,0.0,0.0,86,0.00,,,0.00,Wunderground v.1.15,2013-02-23 04:35:00,
2013-02-22 23:40:00,23.0,19.4,30.31,SE,143,0.0,0.0,86,0.00,,,0.00,Wunderground v.1.15,2013-02-23 04:40:00,
2013-02-22 23:45:00,23.1,19.5,30.31,SE,143,0.0,0.0,86,0.00,,,0.00,Wunderground v.1.15,2013-02-23 04:45:00,
2013-02-22 23:50:00,23.3,19.7,30.30,SE,143,0.0,0.0,86,0.00,,,0.00,Wunderground v.1.15,2013-02-23 04:50:00,
2013-02-22 23:55:00,23.3,19.5,30.30,SE,143,0.0,0.0,85,0.00,,,0.00,Wunderground v.1.15,2013-02-23 04:55:00,